sensor_id;sensor_type;location;lat;lon;timestamp;temperature;humidity
19622;DHT22;9958;33.196;-97.114;2023-04-07T00:01:52;16.10;68.30
19622;DHT22;9958;33.196;-97.114;2023-04-07T00:04:20;16.00;69.10
19622;DHT22;9958;33.196;-97.114;2023-04-07T00:06:48;15.90;69.00
19622;DHT22;9958;33.196;-97.114;2023-04-07T00:09:18;15.90;68.90
19622;DHT22;9958;33.196;-97.114;2023-04-07T00:11:46;15.90;68.90
19622;DHT22;9958;33.196;-97.114;2023-04-07T00:14:15;15.80;68.20
19622;DHT22;9958;33.196;-97.114;2023-04-07T00:16:43;15.70;68.50
19622;DHT22;9958;33.196;-97.114;2023-04-07T00:19:11;15.70;68.70
19622;DHT22;9958;33.196;-97.114;2023-04-07T00:21:40;15.70;69.70
19622;DHT22;9958;33.196;-97.114;2023-04-07T00:24:08;15.70;70.80
19622;DHT22;9958;33.196;-97.114;2023-04-07T00:26:38;15.50;68.50
19622;DHT22;9958;33.196;-97.114;2023-04-07T00:29:06;15.50;68.50
19622;DHT22;9958;33.196;-97.114;2023-04-07T00:31:35;15.40;68.80
19622;DHT22;9958;33.196;-97.114;2023-04-07T00:34:03;15.30;68.40
19622;DHT22;9958;33.196;-97.114;2023-04-07T00:36:32;15.30;69.40
19622;DHT22;9958;33.196;-97.114;2023-04-07T00:39:00;15.30;69.50
19622;DHT22;9958;33.196;-97.114;2023-04-07T00:41:28;15.20;70.10
19622;DHT22;9958;33.196;-97.114;2023-04-07T00:43:58;15.10;70.30
19622;DHT22;9958;33.196;-97.114;2023-04-07T00:46:27;15.00;70.30
19622;DHT22;9958;33.196;-97.114;2023-04-07T00:48:55;15.00;70.90
19622;DHT22;9958;33.196;-97.114;2023-04-07T00:51:23;14.90;70.90
19622;DHT22;9958;33.196;-97.114;2023-04-07T00:53:52;14.90;71.10
19622;DHT22;9958;33.196;-97.114;2023-04-07T00:56:21;14.90;71.10
19622;DHT22;9958;33.196;-97.114;2023-04-07T00:58:49;14.80;71.60
19622;DHT22;9958;33.196;-97.114;2023-04-07T01:01:22;14.70;71.60
19622;DHT22;9958;33.196;-97.114;2023-04-07T01:03:55;14.70;72.00
19622;DHT22;9958;33.196;-97.114;2023-04-07T01:06:27;14.70;72.20
19622;DHT22;9958;33.196;-97.114;2023-04-07T01:09:02;14.60;72.80
19622;DHT22;9958;33.196;-97.114;2023-04-07T01:11:40;14.60;73.00
19622;DHT22;9958;33.196;-97.114;2023-04-07T01:14:10;14.50;72.90
19622;DHT22;9958;33.196;-97.114;2023-04-07T01:16:44;14.50;74.20
19622;DHT22;9958;33.196;-97.114;2023-04-07T01:19:15;14.40;73.30
19622;DHT22;9958;33.196;-97.114;2023-04-07T01:21:52;14.40;73.30
19622;DHT22;9958;33.196;-97.114;2023-04-07T01:24:46;14.30;73.20
19622;DHT22;9958;33.196;-97.114;2023-04-07T01:27:28;14.20;73.40
19622;DHT22;9958;33.196;-97.114;2023-04-07T01:30:03;14.20;73.40
19622;DHT22;9958;33.196;-97.114;2023-04-07T01:32:35;14.20;73.80
19622;DHT22;9958;33.196;-97.114;2023-04-07T01:35:04;14.20;74.10
19622;DHT22;9958;33.196;-97.114;2023-04-07T01:37:36;14.10;74.00
19622;DHT22;9958;33.196;-97.114;2023-04-07T01:40:05;14.10;74.30
19622;DHT22;9958;33.196;-97.114;2023-04-07T01:42:35;14.00;74.60
19622;DHT22;9958;33.196;-97.114;2023-04-07T01:45:07;14.00;74.90
19622;DHT22;9958;33.196;-97.114;2023-04-07T01:47:37;14.00;75.20
19622;DHT22;9958;33.196;-97.114;2023-04-07T01:50:07;13.90;74.80
19622;DHT22;9958;33.196;-97.114;2023-04-07T01:52:36;13.90;74.90
19622;DHT22;9958;33.196;-97.114;2023-04-07T01:55:05;13.80;75.60
19622;DHT22;9958;33.196;-97.114;2023-04-07T01:57:35;13.80;75.60
19622;DHT22;9958;33.196;-97.114;2023-04-07T02:00:04;13.80;75.60
19622;DHT22;9958;33.196;-97.114;2023-04-07T02:02:37;13.80;76.10
19622;DHT22;9958;33.196;-97.114;2023-04-07T02:05:08;13.80;76.60
19622;DHT22;9958;33.196;-97.114;2023-04-07T02:07:51;13.70;76.50
19622;DHT22;9958;33.196;-97.114;2023-04-07T02:10:23;13.70;76.90
19622;DHT22;9958;33.196;-97.114;2023-04-07T02:12:52;13.80;77.50
19622;DHT22;9958;33.196;-97.114;2023-04-07T02:15:21;13.80;77.50
19622;DHT22;9958;33.196;-97.114;2023-04-07T02:17:53;13.80;78.50
19622;DHT22;9958;33.196;-97.114;2023-04-07T02:20:23;13.80;78.40
19622;DHT22;9958;33.196;-97.114;2023-04-07T02:22:52;13.80;78.40
19622;DHT22;9958;33.196;-97.114;2023-04-07T02:25:22;13.90;78.30
19622;DHT22;9958;33.196;-97.114;2023-04-07T02:27:51;13.90;78.20
19622;DHT22;9958;33.196;-97.114;2023-04-07T02:30:20;13.90;77.90
19622;DHT22;9958;33.196;-97.114;2023-04-07T02:32:48;13.90;77.70
19622;DHT22;9958;33.196;-97.114;2023-04-07T02:35:18;13.90;78.40
19622;DHT22;9958;33.196;-97.114;2023-04-07T02:37:46;13.90;78.60
19622;DHT22;9958;33.196;-97.114;2023-04-07T02:40:15;14.00;78.70
19622;DHT22;9958;33.196;-97.114;2023-04-07T02:42:43;13.90;78.50
19622;DHT22;9958;33.196;-97.114;2023-04-07T02:45:11;13.90;78.60
19622;DHT22;9958;33.196;-97.114;2023-04-07T02:47:40;14.00;78.70
19622;DHT22;9958;33.196;-97.114;2023-04-07T02:50:09;13.90;78.60
19622;DHT22;9958;33.196;-97.114;2023-04-07T02:52:39;13.90;78.60
19622;DHT22;9958;33.196;-97.114;2023-04-07T02:55:08;13.90;78.60
19622;DHT22;9958;33.196;-97.114;2023-04-07T02:57:36;14.00;78.70
19622;DHT22;9958;33.196;-97.114;2023-04-07T03:00:06;14.00;79.80
19622;DHT22;9958;33.196;-97.114;2023-04-07T03:02:34;14.00;80.10
19622;DHT22;9958;33.196;-97.114;2023-04-07T03:05:03;14.00;80.00
19622;DHT22;9958;33.196;-97.114;2023-04-07T03:07:31;14.00;79.80
19622;DHT22;9958;33.196;-97.114;2023-04-07T03:10:01;14.00;80.20
19622;DHT22;9958;33.196;-97.114;2023-04-07T03:12:29;13.90;80.00
19622;DHT22;9958;33.196;-97.114;2023-04-07T03:14:58;14.00;80.10
19622;DHT22;9958;33.196;-97.114;2023-04-07T03:17:26;13.90;80.00
19622;DHT22;9958;33.196;-97.114;2023-04-07T03:19:54;13.90;79.60
19622;DHT22;9958;33.196;-97.114;2023-04-07T03:22:23;13.90;80.00
19622;DHT22;9958;33.196;-97.114;2023-04-07T03:24:51;13.90;80.30
19622;DHT22;9958;33.196;-97.114;2023-04-07T03:27:21;13.90;79.20
19622;DHT22;9958;33.196;-97.114;2023-04-07T03:29:49;13.80;79.10
19622;DHT22;9958;33.196;-97.114;2023-04-07T03:32:18;13.80;79.80
19622;DHT22;9958;33.196;-97.114;2023-04-07T03:34:46;13.80;79.90
19622;DHT22;9958;33.196;-97.114;2023-04-07T03:37:14;13.80;80.00
19622;DHT22;9958;33.196;-97.114;2023-04-07T03:39:43;13.90;80.00
19622;DHT22;9958;33.196;-97.114;2023-04-07T03:42:11;13.80;80.20
19622;DHT22;9958;33.196;-97.114;2023-04-07T03:44:41;13.90;79.60
19622;DHT22;9958;33.196;-97.114;2023-04-07T03:47:09;13.80;79.90
19622;DHT22;9958;33.196;-97.114;2023-04-07T03:49:38;13.90;80.20
19622;DHT22;9958;33.196;-97.114;2023-04-07T03:52:06;13.90;80.00
19622;DHT22;9958;33.196;-97.114;2023-04-07T03:54:34;13.80;79.90
19622;DHT22;9958;33.196;-97.114;2023-04-07T03:57:03;13.90;80.10
19622;DHT22;9958;33.196;-97.114;2023-04-07T03:59:31;13.80;79.70
19622;DHT22;9958;33.196;-97.114;2023-04-07T04:02:01;13.90;80.20
19622;DHT22;9958;33.196;-97.114;2023-04-07T04:04:29;13.90;80.40
19622;DHT22;9958;33.196;-97.114;2023-04-07T04:06:58;13.90;80.30
19622;DHT22;9958;33.196;-97.114;2023-04-07T04:09:26;13.80;80.00
19622;DHT22;9958;33.196;-97.114;2023-04-07T04:11:55;13.80;80.10
19622;DHT22;9958;33.196;-97.114;2023-04-07T04:14:23;13.80;80.30
19622;DHT22;9958;33.196;-97.114;2023-04-07T04:16:52;13.80;80.40
19622;DHT22;9958;33.196;-97.114;2023-04-07T04:19:21;13.80;80.40
19622;DHT22;9958;33.196;-97.114;2023-04-07T04:21:50;13.80;80.40
19622;DHT22;9958;33.196;-97.114;2023-04-07T04:24:18;13.80;80.40
19622;DHT22;9958;33.196;-97.114;2023-04-07T04:26:46;13.80;80.80
19622;DHT22;9958;33.196;-97.114;2023-04-07T04:29:15;13.80;80.50
19622;DHT22;9958;33.196;-97.114;2023-04-07T04:31:43;13.80;80.10
19622;DHT22;9958;33.196;-97.114;2023-04-07T04:34:11;13.80;80.40
19622;DHT22;9958;33.196;-97.114;2023-04-07T04:36:41;13.80;80.50
19622;DHT22;9958;33.196;-97.114;2023-04-07T04:39:09;13.80;80.70
19622;DHT22;9958;33.196;-97.114;2023-04-07T04:41:38;13.80;80.90
19622;DHT22;9958;33.196;-97.114;2023-04-07T04:44:06;13.80;81.00
19622;DHT22;9958;33.196;-97.114;2023-04-07T04:46:34;13.80;81.00
19622;DHT22;9958;33.196;-97.114;2023-04-07T04:49:03;13.80;81.40
19622;DHT22;9958;33.196;-97.114;2023-04-07T04:51:31;13.80;81.50
19622;DHT22;9958;33.196;-97.114;2023-04-07T04:54:01;13.80;81.90
19622;DHT22;9958;33.196;-97.114;2023-04-07T04:56:31;13.80;82.10
19622;DHT22;9958;33.196;-97.114;2023-04-07T04:59:00;13.80;82.40
19622;DHT22;9958;33.196;-97.114;2023-04-07T05:01:28;13.80;83.00
19622;DHT22;9958;33.196;-97.114;2023-04-07T05:03:56;13.80;82.90
19622;DHT22;9958;33.196;-97.114;2023-04-07T05:06:25;13.80;82.60
19622;DHT22;9958;33.196;-97.114;2023-04-07T05:08:53;13.70;82.20
19622;DHT22;9958;33.196;-97.114;2023-04-07T05:11:23;13.70;82.30
19622;DHT22;9958;33.196;-97.114;2023-04-07T05:13:52;13.70;82.40
19622;DHT22;9958;33.196;-97.114;2023-04-07T05:16:20;13.70;82.30
19622;DHT22;9958;33.196;-97.114;2023-04-07T05:18:48;13.70;82.10
19622;DHT22;9958;33.196;-97.114;2023-04-07T05:21:17;13.70;82.10
19622;DHT22;9958;33.196;-97.114;2023-04-07T05:23:47;13.70;82.10
19622;DHT22;9958;33.196;-97.114;2023-04-07T05:26:15;13.60;81.90
19622;DHT22;9958;33.196;-97.114;2023-04-07T05:28:45;13.60;81.70
19622;DHT22;9958;33.196;-97.114;2023-04-07T05:31:13;13.70;81.80
19622;DHT22;9958;33.196;-97.114;2023-04-07T05:33:41;13.70;81.90
19622;DHT22;9958;33.196;-97.114;2023-04-07T05:36:10;13.60;81.40
19622;DHT22;9958;33.196;-97.114;2023-04-07T05:38:38;13.70;81.80
19622;DHT22;9958;33.196;-97.114;2023-04-07T05:41:07;13.70;81.30
19622;DHT22;9958;33.196;-97.114;2023-04-07T05:43:35;13.70;81.60
19622;DHT22;9958;33.196;-97.114;2023-04-07T05:46:05;13.60;80.50
19622;DHT22;9958;33.196;-97.114;2023-04-07T05:48:34;13.60;80.70
19622;DHT22;9958;33.196;-97.114;2023-04-07T05:51:02;13.60;80.50
19622;DHT22;9958;33.196;-97.114;2023-04-07T05:53:30;13.60;80.70
19622;DHT22;9958;33.196;-97.114;2023-04-07T05:55:59;13.50;80.10
19622;DHT22;9958;33.196;-97.114;2023-04-07T05:58:27;13.60;80.60
19622;DHT22;9958;33.196;-97.114;2023-04-07T06:00:55;13.60;80.80
19622;DHT22;9958;33.196;-97.114;2023-04-07T06:03:25;13.60;81.20
19622;DHT22;9958;33.196;-97.114;2023-04-07T06:05:54;13.50;80.90
19622;DHT22;9958;33.196;-97.114;2023-04-07T06:08:23;13.60;81.00
19622;DHT22;9958;33.196;-97.114;2023-04-07T06:10:52;13.50;81.00
19622;DHT22;9958;33.196;-97.114;2023-04-07T06:13:21;13.50;80.90
19622;DHT22;9958;33.196;-97.114;2023-04-07T06:15:50;13.50;80.80
19622;DHT22;9958;33.196;-97.114;2023-04-07T06:18:18;13.60;80.50
19622;DHT22;9958;33.196;-97.114;2023-04-07T06:20:48;13.50;80.80
19622;DHT22;9958;33.196;-97.114;2023-04-07T06:23:16;13.60;80.80
19622;DHT22;9958;33.196;-97.114;2023-04-07T06:25:44;13.50;80.10
19622;DHT22;9958;33.196;-97.114;2023-04-07T06:28:17;13.50;80.40
19622;DHT22;9958;33.196;-97.114;2023-04-07T06:30:46;13.50;80.30
19622;DHT22;9958;33.196;-97.114;2023-04-07T06:33:14;13.50;80.20
19622;DHT22;9958;33.196;-97.114;2023-04-07T06:35:42;13.50;80.40
19622;DHT22;9958;33.196;-97.114;2023-04-07T06:38:12;13.50;80.80
19622;DHT22;9958;33.196;-97.114;2023-04-07T06:40:41;13.50;80.40
19622;DHT22;9958;33.196;-97.114;2023-04-07T06:43:09;13.50;80.60
19622;DHT22;9958;33.196;-97.114;2023-04-07T06:45:37;13.50;80.50
19622;DHT22;9958;33.196;-97.114;2023-04-07T06:48:06;13.50;80.30
19622;DHT22;9958;33.196;-97.114;2023-04-07T06:50:36;13.40;80.10
19622;DHT22;9958;33.196;-97.114;2023-04-07T06:53:04;13.40;79.40
19622;DHT22;9958;33.196;-97.114;2023-04-07T06:55:34;13.40;79.20
19622;DHT22;9958;33.196;-97.114;2023-04-07T06:58:02;13.40;79.70
19622;DHT22;9958;33.196;-97.114;2023-04-07T07:00:31;13.40;80.10
19622;DHT22;9958;33.196;-97.114;2023-04-07T07:02:59;13.30;80.00
19622;DHT22;9958;33.196;-97.114;2023-04-07T07:05:27;13.40;79.60
19622;DHT22;9958;33.196;-97.114;2023-04-07T07:07:56;13.30;78.60
19622;DHT22;9958;33.196;-97.114;2023-04-07T07:10:24;13.30;77.90
19622;DHT22;9958;33.196;-97.114;2023-04-07T07:12:54;13.20;77.80
19622;DHT22;9958;33.196;-97.114;2023-04-07T07:15:22;13.20;77.80
19622;DHT22;9958;33.196;-97.114;2023-04-07T07:17:50;13.10;77.40
19622;DHT22;9958;33.196;-97.114;2023-04-07T07:20:19;13.10;77.60
19622;DHT22;9958;33.196;-97.114;2023-04-07T07:22:48;13.10;77.70
19622;DHT22;9958;33.196;-97.114;2023-04-07T07:25:17;13.10;77.70
19622;DHT22;9958;33.196;-97.114;2023-04-07T07:27:46;13.10;77.70
19622;DHT22;9958;33.196;-97.114;2023-04-07T07:30:20;13.00;77.00
19622;DHT22;9958;33.196;-97.114;2023-04-07T07:32:49;13.00;77.00
19622;DHT22;9958;33.196;-97.114;2023-04-07T07:35:19;13.00;76.90
19622;DHT22;9958;33.196;-97.114;2023-04-07T07:37:47;13.00;77.60
19622;DHT22;9958;33.196;-97.114;2023-04-07T07:40:15;13.00;77.40
19622;DHT22;9958;33.196;-97.114;2023-04-07T07:42:45;12.90;77.00
19622;DHT22;9958;33.196;-97.114;2023-04-07T07:45:13;12.90;77.10
19622;DHT22;9958;33.196;-97.114;2023-04-07T07:47:44;12.90;77.10
19622;DHT22;9958;33.196;-97.114;2023-04-07T07:50:13;12.90;77.50
19622;DHT22;9958;33.196;-97.114;2023-04-07T07:52:41;12.80;77.20
19622;DHT22;9958;33.196;-97.114;2023-04-07T07:55:11;12.80;77.40
19622;DHT22;9958;33.196;-97.114;2023-04-07T07:57:39;12.80;77.30
19622;DHT22;9958;33.196;-97.114;2023-04-07T08:00:09;12.70;76.50
19622;DHT22;9958;33.196;-97.114;2023-04-07T08:02:37;12.70;76.90
19622;DHT22;9958;33.196;-97.114;2023-04-07T08:05:08;12.70;76.90
19622;DHT22;9958;33.196;-97.114;2023-04-07T08:07:36;12.60;77.80
19622;DHT22;9958;33.196;-97.114;2023-04-07T08:10:05;12.60;77.00
19622;DHT22;9958;33.196;-97.114;2023-04-07T08:12:34;12.60;77.10
19622;DHT22;9958;33.196;-97.114;2023-04-07T08:15:02;12.60;77.20
19622;DHT22;9958;33.196;-97.114;2023-04-07T08:17:31;12.60;77.30
19622;DHT22;9958;33.196;-97.114;2023-04-07T08:20:00;12.50;77.40
19622;DHT22;9958;33.196;-97.114;2023-04-07T08:22:30;12.50;77.20
19622;DHT22;9958;33.196;-97.114;2023-04-07T08:24:58;12.50;77.10
19622;DHT22;9958;33.196;-97.114;2023-04-07T08:27:27;12.40;77.20
19622;DHT22;9958;33.196;-97.114;2023-04-07T08:29:59;12.40;77.80
19622;DHT22;9958;33.196;-97.114;2023-04-07T08:32:36;12.40;77.70
19622;DHT22;9958;33.196;-97.114;2023-04-07T08:35:05;12.40;77.90
19622;DHT22;9958;33.196;-97.114;2023-04-07T08:37:36;12.40;78.30
19622;DHT22;9958;33.196;-97.114;2023-04-07T08:40:06;12.30;78.40
19622;DHT22;9958;33.196;-97.114;2023-04-07T08:42:35;12.30;78.30
19622;DHT22;9958;33.196;-97.114;2023-04-07T08:45:08;12.30;78.70
19622;DHT22;9958;33.196;-97.114;2023-04-07T08:47:37;12.20;78.60
19622;DHT22;9958;33.196;-97.114;2023-04-07T08:50:08;12.20;78.90
19622;DHT22;9958;33.196;-97.114;2023-04-07T08:52:44;12.20;78.30
19622;DHT22;9958;33.196;-97.114;2023-04-07T08:55:13;12.20;78.30
19622;DHT22;9958;33.196;-97.114;2023-04-07T08:57:41;12.20;78.40
19622;DHT22;9958;33.196;-97.114;2023-04-07T09:00:11;12.20;78.90
19622;DHT22;9958;33.196;-97.114;2023-04-07T09:02:41;12.10;79.20
19622;DHT22;9958;33.196;-97.114;2023-04-07T09:05:11;12.20;79.10
19622;DHT22;9958;33.196;-97.114;2023-04-07T09:07:41;12.20;79.40
19622;DHT22;9958;33.196;-97.114;2023-04-07T09:10:10;12.10;79.20
19622;DHT22;9958;33.196;-97.114;2023-04-07T09:12:38;12.10;79.00
19622;DHT22;9958;33.196;-97.114;2023-04-07T09:15:07;12.10;78.60
19622;DHT22;9958;33.196;-97.114;2023-04-07T09:17:36;12.20;79.10
19622;DHT22;9958;33.196;-97.114;2023-04-07T09:20:05;12.10;79.10
19622;DHT22;9958;33.196;-97.114;2023-04-07T09:22:38;12.10;79.20
19622;DHT22;9958;33.196;-97.114;2023-04-07T09:25:14;12.10;80.20
19622;DHT22;9958;33.196;-97.114;2023-04-07T09:27:54;12.10;79.00
19622;DHT22;9958;33.196;-97.114;2023-04-07T09:30:23;12.10;78.60
19622;DHT22;9958;33.196;-97.114;2023-04-07T09:32:51;12.10;79.30
19622;DHT22;9958;33.196;-97.114;2023-04-07T09:35:20;12.10;78.50
19622;DHT22;9958;33.196;-97.114;2023-04-07T09:38:01;12.10;78.20
19622;DHT22;9958;33.196;-97.114;2023-04-07T09:40:32;12.10;78.80
19622;DHT22;9958;33.196;-97.114;2023-04-07T09:43:02;12.10;78.20
19622;DHT22;9958;33.196;-97.114;2023-04-07T09:45:31;12.00;77.40
19622;DHT22;9958;33.196;-97.114;2023-04-07T09:48:04;12.00;77.20
19622;DHT22;9958;33.196;-97.114;2023-04-07T09:50:35;12.00;77.10
19622;DHT22;9958;33.196;-97.114;2023-04-07T09:53:03;11.90;77.10
19622;DHT22;9958;33.196;-97.114;2023-04-07T09:55:34;11.90;77.80
19622;DHT22;9958;33.196;-97.114;2023-04-07T09:58:03;11.90;77.60
19622;DHT22;9958;33.196;-97.114;2023-04-07T10:00:33;11.90;78.20
19622;DHT22;9958;33.196;-97.114;2023-04-07T10:03:03;11.80;78.50
19622;DHT22;9958;33.196;-97.114;2023-04-07T10:05:32;11.90;79.20
19622;DHT22;9958;33.196;-97.114;2023-04-07T10:08:01;11.80;79.70
19622;DHT22;9958;33.196;-97.114;2023-04-07T10:10:31;11.80;80.50
19622;DHT22;9958;33.196;-97.114;2023-04-07T10:13:04;11.80;82.40
19622;DHT22;9958;33.196;-97.114;2023-04-07T10:15:33;11.80;84.60
19622;DHT22;9958;33.196;-97.114;2023-04-07T10:18:04;11.70;85.80
19622;DHT22;9958;33.196;-97.114;2023-04-07T10:20:34;11.70;86.80
19622;DHT22;9958;33.196;-97.114;2023-04-07T10:23:13;11.60;88.20
19622;DHT22;9958;33.196;-97.114;2023-04-07T10:25:44;11.50;88.70
19622;DHT22;9958;33.196;-97.114;2023-04-07T10:28:16;11.40;89.30
19622;DHT22;9958;33.196;-97.114;2023-04-07T10:30:45;11.40;89.60
19622;DHT22;9958;33.196;-97.114;2023-04-07T10:33:14;11.40;90.00
19622;DHT22;9958;33.196;-97.114;2023-04-07T10:36:02;11.40;90.20
19622;DHT22;9958;33.196;-97.114;2023-04-07T10:38:31;11.30;90.40
19622;DHT22;9958;33.196;-97.114;2023-04-07T10:40:59;11.20;90.60
19622;DHT22;9958;33.196;-97.114;2023-04-07T10:43:39;11.20;90.70
19622;DHT22;9958;33.196;-97.114;2023-04-07T10:46:09;11.10;90.80
19622;DHT22;9958;33.196;-97.114;2023-04-07T10:48:37;11.10;90.90
19622;DHT22;9958;33.196;-97.114;2023-04-07T10:51:13;11.10;91.00
19622;DHT22;9958;33.196;-97.114;2023-04-07T10:57:18;11.00;91.10
19622;DHT22;9958;33.196;-97.114;2023-04-07T11:00:15;10.90;91.00
19622;DHT22;9958;33.196;-97.114;2023-04-07T11:02:43;10.90;90.80
19622;DHT22;9958;33.196;-97.114;2023-04-07T11:05:22;10.90;90.70
19622;DHT22;9958;33.196;-97.114;2023-04-07T11:07:53;10.90;90.50
19622;DHT22;9958;33.196;-97.114;2023-04-07T11:10:23;10.80;90.40
19622;DHT22;9958;33.196;-97.114;2023-04-07T11:13:00;10.90;90.40
19622;DHT22;9958;33.196;-97.114;2023-04-07T11:15:30;10.80;90.40
19622;DHT22;9958;33.196;-97.114;2023-04-07T11:18:18;10.80;90.10
19622;DHT22;9958;33.196;-97.114;2023-04-07T11:20:49;10.80;90.10
19622;DHT22;9958;33.196;-97.114;2023-04-07T11:23:19;10.80;90.30
19622;DHT22;9958;33.196;-97.114;2023-04-07T11:25:49;10.80;90.20
19622;DHT22;9958;33.196;-97.114;2023-04-07T11:28:18;10.80;90.10
19622;DHT22;9958;33.196;-97.114;2023-04-07T11:30:49;10.80;90.10
19622;DHT22;9958;33.196;-97.114;2023-04-07T11:33:19;10.80;90.10
19622;DHT22;9958;33.196;-97.114;2023-04-07T11:35:49;10.80;90.20
19622;DHT22;9958;33.196;-97.114;2023-04-07T11:38:18;10.80;90.10
19622;DHT22;9958;33.196;-97.114;2023-04-07T11:40:47;10.80;90.10
19622;DHT22;9958;33.196;-97.114;2023-04-07T11:43:17;10.80;90.10
19622;DHT22;9958;33.196;-97.114;2023-04-07T11:45:45;10.80;90.40
19622;DHT22;9958;33.196;-97.114;2023-04-07T11:48:29;10.80;90.40
19622;DHT22;9958;33.196;-97.114;2023-04-07T11:50:57;10.80;90.30
19622;DHT22;9958;33.196;-97.114;2023-04-07T11:53:27;10.80;90.30
19622;DHT22;9958;33.196;-97.114;2023-04-07T11:56:03;10.80;90.10
19622;DHT22;9958;33.196;-97.114;2023-04-07T11:58:32;10.70;90.00
19622;DHT22;9958;33.196;-97.114;2023-04-07T12:01:02;10.70;90.20
19622;DHT22;9958;33.196;-97.114;2023-04-07T12:03:36;10.70;90.30
19622;DHT22;9958;33.196;-97.114;2023-04-07T12:06:04;10.70;90.10
19622;DHT22;9958;33.196;-97.114;2023-04-07T12:08:40;10.70;90.20
19622;DHT22;9958;33.196;-97.114;2023-04-07T12:11:09;10.60;90.10
19622;DHT22;9958;33.196;-97.114;2023-04-07T12:13:37;10.60;90.00
19622;DHT22;9958;33.196;-97.114;2023-04-07T12:16:06;10.60;90.20
19622;DHT22;9958;33.196;-97.114;2023-04-07T12:18:36;10.50;90.20
19622;DHT22;9958;33.196;-97.114;2023-04-07T12:21:05;10.50;90.30
19622;DHT22;9958;33.196;-97.114;2023-04-07T12:23:33;10.50;90.30
19622;DHT22;9958;33.196;-97.114;2023-04-07T12:26:01;10.50;90.30
19622;DHT22;9958;33.196;-97.114;2023-04-07T12:28:30;10.40;90.20
19622;DHT22;9958;33.196;-97.114;2023-04-07T12:30:58;10.40;90.20
19622;DHT22;9958;33.196;-97.114;2023-04-07T12:33:26;10.40;90.30
19622;DHT22;9958;33.196;-97.114;2023-04-07T12:35:56;10.40;90.30
19622;DHT22;9958;33.196;-97.114;2023-04-07T12:38:25;10.40;90.10
19622;DHT22;9958;33.196;-97.114;2023-04-07T12:40:54;10.40;90.30
19622;DHT22;9958;33.196;-97.114;2023-04-07T12:43:28;10.40;90.30
19622;DHT22;9958;33.196;-97.114;2023-04-07T12:45:57;10.40;90.30
19622;DHT22;9958;33.196;-97.114;2023-04-07T12:48:25;10.40;90.00
19622;DHT22;9958;33.196;-97.114;2023-04-07T12:50:55;10.40;89.90
19622;DHT22;9958;33.196;-97.114;2023-04-07T12:53:24;10.40;90.00
19622;DHT22;9958;33.196;-97.114;2023-04-07T12:55:52;10.40;90.10
19622;DHT22;9958;33.196;-97.114;2023-04-07T12:58:21;10.40;90.00
19622;DHT22;9958;33.196;-97.114;2023-04-07T13:00:49;10.40;90.00
19622;DHT22;9958;33.196;-97.114;2023-04-07T13:03:18;10.30;90.00
19622;DHT22;9958;33.196;-97.114;2023-04-07T13:05:47;10.40;90.30
19622;DHT22;9958;33.196;-97.114;2023-04-07T13:08:17;10.40;90.60
19622;DHT22;9958;33.196;-97.114;2023-04-07T13:10:45;10.40;90.30
19622;DHT22;9958;33.196;-97.114;2023-04-07T13:13:13;10.50;90.50
19622;DHT22;9958;33.196;-97.114;2023-04-07T13:15:42;10.50;90.60
19622;DHT22;9958;33.196;-97.114;2023-04-07T13:18:10;10.40;90.50
19622;DHT22;9958;33.196;-97.114;2023-04-07T13:20:38;10.50;90.40
19622;DHT22;9958;33.196;-97.114;2023-04-07T13:23:06;10.60;90.70
19622;DHT22;9958;33.196;-97.114;2023-04-07T13:25:36;10.60;90.60
19622;DHT22;9958;33.196;-97.114;2023-04-07T13:28:05;10.50;90.50
19622;DHT22;9958;33.196;-97.114;2023-04-07T13:30:33;10.60;90.90
19622;DHT22;9958;33.196;-97.114;2023-04-07T13:33:02;10.70;90.70
19622;DHT22;9958;33.196;-97.114;2023-04-07T13:35:30;10.70;90.80
19622;DHT22;9958;33.196;-97.114;2023-04-07T13:38:01;10.80;90.30
19622;DHT22;9958;33.196;-97.114;2023-04-07T13:40:30;10.80;90.30
19622;DHT22;9958;33.196;-97.114;2023-04-07T13:43:00;10.90;90.50
19622;DHT22;9958;33.196;-97.114;2023-04-07T13:45:28;11.00;90.80
19622;DHT22;9958;33.196;-97.114;2023-04-07T13:47:57;11.00;90.60
19622;DHT22;9958;33.196;-97.114;2023-04-07T13:50:25;11.00;89.30
19622;DHT22;9958;33.196;-97.114;2023-04-07T13:52:54;11.00;89.50
19622;DHT22;9958;33.196;-97.114;2023-04-07T13:55:22;11.10;89.40
19622;DHT22;9958;33.196;-97.114;2023-04-07T13:57:50;11.10;89.90
19622;DHT22;9958;33.196;-97.114;2023-04-07T14:00:21;11.20;90.40
19622;DHT22;9958;33.196;-97.114;2023-04-07T14:02:49;11.20;89.40
19622;DHT22;9958;33.196;-97.114;2023-04-07T14:05:17;11.30;89.50
19622;DHT22;9958;33.196;-97.114;2023-04-07T14:07:46;11.40;90.30
19622;DHT22;9958;33.196;-97.114;2023-04-07T14:10:14;11.50;90.00
19622;DHT22;9958;33.196;-97.114;2023-04-07T14:12:43;11.50;89.50
19622;DHT22;9958;33.196;-97.114;2023-04-07T14:15:11;11.60;87.90
19622;DHT22;9958;33.196;-97.114;2023-04-07T14:17:41;11.70;88.60
19622;DHT22;9958;33.196;-97.114;2023-04-07T14:20:10;11.70;87.60
19622;DHT22;9958;33.196;-97.114;2023-04-07T14:22:38;11.80;87.10
19622;DHT22;9958;33.196;-97.114;2023-04-07T14:25:07;11.90;86.20
19622;DHT22;9958;33.196;-97.114;2023-04-07T14:27:36;12.00;85.30
19622;DHT22;9958;33.196;-97.114;2023-04-07T14:30:06;12.00;85.00
19622;DHT22;9958;33.196;-97.114;2023-04-07T14:32:34;12.10;84.80
19622;DHT22;9958;33.196;-97.114;2023-04-07T14:35:04;12.20;83.70
19622;DHT22;9958;33.196;-97.114;2023-04-07T14:37:33;12.40;83.90
19622;DHT22;9958;33.196;-97.114;2023-04-07T14:40:01;12.60;85.10
19622;DHT22;9958;33.196;-97.114;2023-04-07T14:42:30;12.70;86.20
19622;DHT22;9958;33.196;-97.114;2023-04-07T14:44:59;12.80;83.90
19622;DHT22;9958;33.196;-97.114;2023-04-07T14:47:28;12.90;81.30
19622;DHT22;9958;33.196;-97.114;2023-04-07T14:49:56;12.90;83.70
19622;DHT22;9958;33.196;-97.114;2023-04-07T14:52:26;12.90;81.50
19622;DHT22;9958;33.196;-97.114;2023-04-07T14:54:55;13.00;80.70
19622;DHT22;9958;33.196;-97.114;2023-04-07T14:57:23;13.20;82.80
19622;DHT22;9958;33.196;-97.114;2023-04-07T14:59:52;13.30;81.50
19622;DHT22;9958;33.196;-97.114;2023-04-07T15:02:20;13.50;80.20
19622;DHT22;9958;33.196;-97.114;2023-04-07T15:04:48;13.60;81.20
19622;DHT22;9958;33.196;-97.114;2023-04-07T15:07:17;13.80;81.60
19622;DHT22;9958;33.196;-97.114;2023-04-07T15:09:48;14.10;81.20
19622;DHT22;9958;33.196;-97.114;2023-04-07T15:12:16;14.20;80.70
19622;DHT22;9958;33.196;-97.114;2023-04-07T15:14:49;14.20;76.30
19622;DHT22;9958;33.196;-97.114;2023-04-07T15:17:17;14.40;78.20
19622;DHT22;9958;33.196;-97.114;2023-04-07T15:19:46;14.50;77.50
19622;DHT22;9958;33.196;-97.114;2023-04-07T15:22:15;14.60;75.50
19622;DHT22;9958;33.196;-97.114;2023-04-07T15:24:43;14.70;75.50
19622;DHT22;9958;33.196;-97.114;2023-04-07T15:27:13;14.80;75.20
19622;DHT22;9958;33.196;-97.114;2023-04-07T15:29:42;14.90;75.80
19622;DHT22;9958;33.196;-97.114;2023-04-07T15:32:10;15.00;77.10
19622;DHT22;9958;33.196;-97.114;2023-04-07T15:34:38;15.10;76.00